createdAt,value
2018-08-31T00:05:01.830Z,0.00
2018-08-31T00:05:43.230Z,0.00
2018-08-31T00:06:44.006Z,0.00
2018-08-31T00:07:43.220Z,0.00
2018-08-31T00:08:42.937Z,0.00
2018-08-31T00:09:43.304Z,0.00
2018-08-31T00:10:42.658Z,0.00
2018-08-31T00:11:43.200Z,0.00
2018-08-31T00:13:11.216Z,0.00
2018-08-31T00:14:41.764Z,0.00
2018-08-31T00:15:42.820Z,0.00
2018-08-31T00:16:41.668Z,0.00
2018-08-31T00:17:50.899Z,0.00
2018-08-31T00:19:41.590Z,0.00
2018-08-31T00:20:40.773Z,0.00
2018-08-31T00:21:44.696Z,0.00
2018-08-31T00:22:58.070Z,0.00
2018-08-31T00:23:38.960Z,0.00
2018-08-31T00:25:10.006Z,0.00
2018-08-31T00:27:33.373Z,0.00
2018-08-31T00:28:22.593Z,0.00
2018-08-31T00:30:29.046Z,0.00
2018-08-31T00:38:16.855Z,0.00
2018-08-31T00:42:57.210Z,0.00
2018-08-31T00:45:33.988Z,0.00
2018-08-31T00:48:11.617Z,0.00
2018-08-31T00:49:10.594Z,0.00
2018-08-31T00:50:21.625Z,0.00
2018-08-31T00:51:10.580Z,0.00
2018-08-31T00:52:17.615Z,0.00
2018-08-31T00:53:11.697Z,0.00
2018-08-31T00:54:10.669Z,0.00
2018-08-31T00:55:11.415Z,0.00
2018-08-31T00:56:10.588Z,0.00
2018-08-31T00:57:12.413Z,0.00
2018-08-31T00:58:10.579Z,0.00
2018-08-31T00:59:10.614Z,0.00
2018-08-31T01:00:10.636Z,0.00
2018-08-31T01:01:11.434Z,0.00
2018-08-31T01:02:12.438Z,0.00
2018-08-31T01:03:10.560Z,0.00
2018-08-31T01:04:10.637Z,0.00
2018-08-31T01:05:10.569Z,0.00
2018-08-31T01:06:10.589Z,0.00
2018-08-31T01:07:10.658Z,0.00
2018-08-31T01:08:10.585Z,0.00
2018-08-31T01:09:10.668Z,0.00
2018-08-31T01:10:10.667Z,0.00
2018-08-31T01:11:10.643Z,0.00
2018-08-31T01:12:10.550Z,0.00
2018-08-31T01:13:10.649Z,0.00
2018-08-31T01:14:11.438Z,0.00
2018-08-31T01:15:10.555Z,0.00
2018-08-31T01:16:10.629Z,0.00
2018-08-31T01:17:10.526Z,0.00
2018-08-31T01:18:10.550Z,0.00
2018-08-31T01:19:10.595Z,0.00
2018-08-31T01:20:10.584Z,0.00
2018-08-31T01:21:10.585Z,0.00
2018-08-31T01:22:10.560Z,0.00
2018-08-31T01:23:10.704Z,0.00
2018-08-31T01:24:10.643Z,0.00
2018-08-31T01:25:10.643Z,0.00
2018-08-31T01:26:10.652Z,0.00
2018-08-31T01:27:10.581Z,0.00
2018-08-31T01:28:13.433Z,0.00
2018-08-31T01:29:12.447Z,0.00
2018-08-31T01:30:10.601Z,0.00
2018-08-31T01:31:10.539Z,0.00
2018-08-31T01:32:10.595Z,0.00
2018-08-31T01:33:10.576Z,0.00
2018-08-31T01:34:10.638Z,0.00
2018-08-31T01:35:10.614Z,0.00
2018-08-31T01:36:10.617Z,0.00
2018-08-31T01:37:10.539Z,0.00
2018-08-31T01:38:11.376Z,0.00
2018-08-31T01:39:10.603Z,0.00
2018-08-31T01:40:10.543Z,0.00
2018-08-31T01:41:11.417Z,0.00
2018-08-31T01:42:10.544Z,0.00
2018-08-31T01:43:10.541Z,0.00
2018-08-31T01:44:10.590Z,0.00
2018-08-31T01:45:10.575Z,0.00
2018-08-31T01:46:10.549Z,0.00
2018-08-31T01:47:10.551Z,0.00
2018-08-31T01:48:12.498Z,0.00
2018-08-31T01:49:10.678Z,0.00
2018-08-31T01:50:10.599Z,0.00
2018-08-31T01:51:10.536Z,0.00
2018-08-31T01:52:10.595Z,0.00
2018-08-31T01:53:11.441Z,0.00
2018-08-31T01:54:10.611Z,0.00
2018-08-31T01:55:10.610Z,0.00
2018-08-31T01:56:10.640Z,0.00
2018-08-31T01:57:10.595Z,0.00
2018-08-31T01:58:10.535Z,0.00
2018-08-31T01:59:10.533Z,0.00
2018-08-31T02:00:10.523Z,0.00
2018-08-31T02:01:10.564Z,0.00
2018-08-31T02:02:11.373Z,0.00
2018-08-31T02:03:10.554Z,0.00
2018-08-31T02:04:10.579Z,0.00
2018-08-31T02:05:10.567Z,0.00
2018-08-31T02:06:10.560Z,0.00
2018-08-31T02:07:10.514Z,0.00
2018-08-31T02:08:10.513Z,0.00
2018-08-31T02:09:10.522Z,0.00
2018-08-31T02:10:10.528Z,0.00
2018-08-31T02:11:10.517Z,0.00
2018-08-31T02:12:10.600Z,0.00
2018-08-31T02:13:10.522Z,0.00
2018-08-31T02:14:10.523Z,0.00
2018-08-31T02:15:11.389Z,0.00
2018-08-31T02:16:10.532Z,0.00
2018-08-31T02:17:10.552Z,0.00
2018-08-31T02:18:10.535Z,0.00
2018-08-31T02:19:10.589Z,0.00
2018-08-31T02:20:10.624Z,0.00
2018-08-31T02:21:10.555Z,0.00
2018-08-31T02:22:16.429Z,0.00
2018-08-31T02:23:10.538Z,0.00
2018-08-31T02:24:10.501Z,0.00
2018-08-31T02:25:10.532Z,0.00
2018-08-31T02:26:10.508Z,0.00
2018-08-31T02:27:10.566Z,0.00
2018-08-31T02:28:12.568Z,0.00
2018-08-31T02:29:10.703Z,0.00
2018-08-31T02:30:10.684Z,0.00
2018-08-31T02:31:10.752Z,0.00
2018-08-31T02:32:10.579Z,0.00
2018-08-31T02:33:27.960Z,0.00
2018-08-31T02:34:12.504Z,0.00
2018-08-31T02:35:10.564Z,0.00
2018-08-31T02:36:12.424Z,0.00
2018-08-31T02:37:10.628Z,0.00
2018-08-31T02:38:12.562Z,0.00
2018-08-31T02:39:10.738Z,0.00
2018-08-31T02:40:10.640Z,0.00
2018-08-31T02:41:12.566Z,0.00
2018-08-31T02:42:10.474Z,0.00
2018-08-31T02:43:12.586Z,0.00
2018-08-31T02:44:11.693Z,0.00
2018-08-31T02:45:12.406Z,0.00
2018-08-31T02:46:10.488Z,0.00
2018-08-31T02:47:10.496Z,0.00
2018-08-31T02:48:10.527Z,0.00
2018-08-31T02:49:10.533Z,0.00
2018-08-31T02:50:12.530Z,0.00
2018-08-31T02:51:10.470Z,0.00
2018-08-31T02:52:10.488Z,0.00
2018-08-31T02:53:10.524Z,0.00
2018-08-31T02:54:13.520Z,0.00
2018-08-31T02:55:10.530Z,0.00
2018-08-31T02:56:10.557Z,0.00
2018-08-31T02:57:10.572Z,0.00
2018-08-31T02:58:13.443Z,0.00
2018-08-31T02:59:12.498Z,0.00
2018-08-31T03:00:10.580Z,0.00
2018-08-31T03:01:13.458Z,0.00
2018-08-31T03:02:12.525Z,0.00
2018-08-31T03:03:12.478Z,0.00
2018-08-31T03:04:12.498Z,0.00
2018-08-31T03:05:10.581Z,0.00
2018-08-31T03:06:13.403Z,0.00
2018-08-31T03:07:12.439Z,0.00
2018-08-31T03:08:10.488Z,0.00
2018-08-31T03:10:49.795Z,0.00
2018-08-31T03:11:47.795Z,0.00
2018-08-31T03:12:47.781Z,0.00
2018-08-31T03:13:47.747Z,0.00
2018-08-31T03:14:47.897Z,0.00
2018-08-31T03:15:47.830Z,0.00
2018-08-31T03:16:49.884Z,0.00
2018-08-31T03:17:47.885Z,0.00
2018-08-31T03:18:50.019Z,0.00
2018-08-31T03:19:47.741Z,0.00
2018-08-31T03:20:47.745Z,0.00
2018-08-31T03:21:47.740Z,0.00
2018-08-31T03:22:47.741Z,0.00
2018-08-31T03:23:47.740Z,0.00
2018-08-31T03:24:47.734Z,0.00
2018-08-31T03:25:47.732Z,0.00
2018-08-31T03:26:47.736Z,0.00
2018-08-31T03:27:47.730Z,0.00
2018-08-31T03:28:47.739Z,0.00
2018-08-31T03:29:47.735Z,0.00
2018-08-31T03:30:47.732Z,0.00
2018-08-31T03:31:47.725Z,0.00
2018-08-31T03:32:47.732Z,0.00
2018-08-31T03:33:47.773Z,0.00
2018-08-31T03:34:47.721Z,0.00
2018-08-31T03:35:47.727Z,0.00
2018-08-31T03:36:47.740Z,0.00
2018-08-31T03:37:47.720Z,0.00
2018-08-31T03:38:47.728Z,0.00
2018-08-31T03:39:47.717Z,0.00
2018-08-31T03:40:47.712Z,0.00
2018-08-31T03:41:47.730Z,0.00
2018-08-31T03:42:47.714Z,0.00
2018-08-31T03:43:47.744Z,0.00
2018-08-31T03:44:47.712Z,0.00
2018-08-31T03:45:47.706Z,0.00
2018-08-31T03:46:47.705Z,0.00
2018-08-31T03:47:47.713Z,0.00
2018-08-31T03:48:47.726Z,0.00
2018-08-31T03:49:47.704Z,0.00
2018-08-31T03:50:47.703Z,0.00
2018-08-31T03:51:47.709Z,0.00
2018-08-31T03:52:47.698Z,0.00
2018-08-31T03:53:47.695Z,0.00
2018-08-31T03:54:49.239Z,0.00
2018-08-31T03:55:54.900Z,0.00
2018-08-31T03:57:43.678Z,0.00
2018-08-31T03:58:41.978Z,0.00
2018-08-31T03:59:41.747Z,0.00
2018-08-31T04:00:41.713Z,0.00
2018-08-31T04:01:41.679Z,0.00
2018-08-31T04:02:41.696Z,0.00
2018-08-31T04:03:41.759Z,0.00
2018-08-31T04:04:42.052Z,0.00
2018-08-31T04:05:42.739Z,0.00
2018-08-31T04:06:49.685Z,0.00
2018-08-31T04:08:35.577Z,4.00
2018-08-31T04:09:35.498Z,4.00
2018-08-31T04:12:04.796Z,4.00
2018-08-31T04:12:56.276Z,4.00
2018-08-31T04:13:56.247Z,4.00
2018-08-31T04:21:36.734Z,8.00
2018-08-31T04:24:53.263Z,12.00
2018-08-31T04:25:51.385Z,12.00
2018-08-31T04:26:51.194Z,16.00
2018-08-31T04:27:53.164Z,16.00
2018-08-31T04:28:54.172Z,16.00
2018-08-31T04:29:51.169Z,20.00
2018-08-31T04:30:54.394Z,24.00
2018-08-31T04:31:54.132Z,24.00
2018-08-31T04:32:51.164Z,24.00
2018-08-31T04:33:51.263Z,28.00
2018-08-31T04:34:54.272Z,28.00
2018-08-31T04:35:51.161Z,36.00
2018-08-31T04:36:55.194Z,36.00
2018-08-31T04:37:51.176Z,40.00
2018-08-31T04:38:51.222Z,40.00
2018-08-31T04:39:52.225Z,44.00
2018-08-31T04:40:53.343Z,52.00
2018-08-31T04:51:25.005Z,80.00
2018-08-31T04:52:02.768Z,84.00
2018-08-31T05:00:07.295Z,124.00
2018-08-31T05:08:39.271Z,212.00
2018-08-31T05:09:40.009Z,220.00
2018-08-31T05:10:39.193Z,228.00
2018-08-31T05:11:39.195Z,240.00
2018-08-31T05:12:39.449Z,248.00
2018-08-31T05:13:39.143Z,256.00
2018-08-31T05:14:40.020Z,256.00
2018-08-31T05:15:39.290Z,264.00
2018-08-31T05:16:39.152Z,272.00
2018-08-31T05:17:39.126Z,276.00
2018-08-31T05:18:39.145Z,280.00
2018-08-31T05:19:40.130Z,288.00
2018-08-31T05:20:39.143Z,296.00
2018-08-31T05:21:41.181Z,308.00
2018-08-31T05:22:41.645Z,320.00
2018-08-31T05:23:40.066Z,332.00
2018-08-31T05:25:00.384Z,344.00
2018-08-31T05:25:39.231Z,360.00
2018-08-31T05:30:18.324Z,440.00
2018-08-31T05:31:39.966Z,464.00
2018-08-31T05:32:17.973Z,480.00
2018-08-31T05:33:18.155Z,496.00
2018-08-31T05:37:24.637Z,508.00
2018-08-31T05:38:24.510Z,512.00
2018-08-31T05:39:24.431Z,512.00
2018-08-31T05:40:24.478Z,508.00
2018-08-31T05:41:24.617Z,508.00
2018-08-31T05:43:45.313Z,492.00
2018-08-31T05:44:45.255Z,488.00
2018-08-31T05:45:47.350Z,492.00
2018-08-31T05:46:45.174Z,512.00
2018-08-31T05:47:45.315Z,532.00
2018-08-31T05:48:45.384Z,556.00
2018-08-31T05:49:45.183Z,584.00
2018-08-31T05:50:45.209Z,636.00
2018-08-31T05:51:45.225Z,700.00
2018-08-31T05:52:45.784Z,780.00
2018-08-31T05:53:45.219Z,860.00
2018-08-31T05:54:45.162Z,944.00
2018-08-31T05:55:45.714Z,1020.00
2018-08-31T05:56:45.845Z,1092.00
2018-08-31T05:57:45.216Z,1148.00
2018-08-31T05:58:45.726Z,1204.00
2018-08-31T05:59:45.332Z,1252.00
2018-08-31T06:00:47.747Z,1296.00
2018-08-31T06:01:45.172Z,1336.00
2018-08-31T06:02:45.213Z,1376.00
2018-08-31T06:03:45.152Z,1412.00
2018-08-31T06:04:45.812Z,1436.00
2018-08-31T06:05:45.203Z,1456.00
2018-08-31T06:06:45.154Z,1488.00
2018-08-31T06:07:45.174Z,1512.00
2018-08-31T06:08:45.154Z,1528.00
2018-08-31T06:09:45.145Z,1536.00
2018-08-31T06:10:45.151Z,1528.00
2018-08-31T06:11:45.206Z,1480.00
2018-08-31T06:12:45.150Z,1396.00
2018-08-31T06:13:45.169Z,1312.00
2018-08-31T06:14:45.199Z,1284.00
2018-08-31T06:15:45.157Z,1264.00
2018-08-31T06:16:45.147Z,1192.00
2018-08-31T06:17:45.158Z,1056.00
2018-08-31T06:18:45.146Z,944.00
2018-08-31T06:19:45.142Z,872.00
2018-08-31T06:20:45.155Z,816.00
2018-08-31T06:21:45.177Z,776.00
2018-08-31T06:22:45.157Z,744.00
2018-08-31T06:23:45.145Z,720.00
2018-08-31T06:24:45.179Z,712.00
2018-08-31T06:25:45.236Z,712.00
2018-08-31T06:26:46.704Z,724.00
2018-08-31T06:27:45.161Z,736.00
2018-08-31T06:28:45.185Z,748.00
2018-08-31T06:29:45.220Z,756.00
2018-08-31T06:30:45.252Z,772.00
2018-08-31T06:31:45.196Z,792.00
2018-08-31T06:32:45.394Z,816.00
2018-08-31T06:33:46.427Z,836.00
2018-08-31T06:34:45.794Z,856.00
2018-08-31T06:35:45.403Z,868.00
2018-08-31T06:36:46.793Z,856.00
2018-08-31T06:37:45.171Z,836.00
2018-08-31T06:38:45.753Z,800.00
2018-08-31T06:39:45.810Z,756.00
2018-08-31T06:40:45.227Z,724.00
2018-08-31T06:41:45.920Z,716.00
2018-08-31T06:42:45.868Z,732.00
2018-08-31T06:44:15.859Z,756.00
2018-08-31T06:45:40.814Z,840.00
2018-08-31T06:46:40.795Z,896.00
2018-08-31T06:47:40.712Z,956.00
2018-08-31T06:48:40.649Z,1004.00
2018-08-31T06:49:40.719Z,1088.00
2018-08-31T06:50:40.681Z,1212.00
2018-08-31T06:51:40.646Z,1272.00
2018-08-31T06:52:40.662Z,1320.00
2018-08-31T06:53:40.644Z,1320.00
2018-08-31T06:54:40.644Z,1420.00
2018-08-31T06:55:40.851Z,1624.00
2018-08-31T06:56:41.829Z,1776.00
2018-08-31T06:57:40.702Z,1676.00
2018-08-31T06:58:40.677Z,2512.00
2018-08-31T06:59:42.668Z,1668.00
2018-08-31T07:00:40.650Z,1552.00
2018-08-31T07:01:48.874Z,1368.00
2018-08-31T07:03:47.497Z,1136.00
2018-08-31T07:17:09.098Z,1468.00
2018-08-31T07:18:05.459Z,1364.00
2018-08-31T07:41:33.461Z,2084.00
2018-08-31T07:42:34.806Z,1740.00
2018-08-31T07:45:37.264Z,1848.00
2018-08-31T07:46:38.981Z,1880.00
2018-08-31T09:13:24.772Z,17536.00
2018-08-31T09:14:47.629Z,17248.00
2018-08-31T09:17:10.220Z,17312.00
2018-08-31T09:18:13.579Z,16832.00
2018-08-31T09:22:49.644Z,5808.00
2018-08-31T09:23:49.139Z,5644.00
2018-08-31T09:25:42.213Z,6540.00
2018-08-31T09:26:42.075Z,5676.00
2018-08-31T09:29:29.612Z,5024.00
2018-08-31T09:30:29.413Z,4884.00
2018-08-31T09:32:46.444Z,4816.00
2018-08-31T09:33:23.291Z,4744.00
2018-08-31T09:34:35.360Z,4748.00
2018-08-31T09:36:20.783Z,4628.00
2018-08-31T09:37:19.230Z,4544.00
2018-08-31T09:38:19.301Z,4368.00
2018-08-31T09:39:19.242Z,4212.00
2018-08-31T09:40:42.961Z,4180.00
2018-08-31T09:43:08.842Z,4212.00
2018-08-31T09:43:16.317Z,4196.00
2018-08-31T09:44:16.308Z,4128.00
2018-08-31T09:50:08.694Z,2732.00
2018-08-31T09:52:57.931Z,2236.00
2018-08-31T10:05:24.927Z,2484.00
2018-08-31T10:06:24.426Z,2416.00
2018-08-31T10:07:24.533Z,2388.00
2018-08-31T10:08:24.535Z,2472.00
2018-08-31T10:09:24.413Z,2652.00
2018-08-31T10:10:24.439Z,2964.00
2018-08-31T10:11:24.413Z,3384.00
2018-08-31T10:12:24.440Z,3544.00
2018-08-31T10:18:57.825Z,5648.00
2018-08-31T10:19:57.581Z,5716.00
2018-08-31T10:20:57.410Z,5940.00
2018-08-31T10:24:38.073Z,6496.00
2018-08-31T10:25:06.915Z,6468.00
2018-08-31T10:27:43.092Z,6344.00
2018-08-31T10:30:13.031Z,6064.00
2018-08-31T10:31:13.052Z,5832.00
2018-08-31T10:33:13.492Z,5540.00
2018-08-31T10:34:06.085Z,5804.00
2018-08-31T10:35:06.076Z,5148.00
2018-08-31T10:36:06.043Z,4832.00
2018-08-31T10:37:06.044Z,4512.00
2018-08-31T10:38:06.198Z,4432.00
2018-08-31T10:39:06.141Z,4660.00
2018-08-31T10:40:06.091Z,4808.00
2018-08-31T10:41:06.947Z,4792.00
2018-08-31T10:42:06.109Z,4676.00
2018-08-31T10:43:06.067Z,5024.00
2018-08-31T10:44:06.121Z,5056.00
2018-08-31T10:45:06.090Z,5044.00
2018-08-31T10:46:06.088Z,5300.00
2018-08-31T10:47:06.110Z,5580.00
2018-08-31T10:48:06.095Z,5832.00
2018-08-31T10:49:06.135Z,5904.00
2018-08-31T10:50:06.098Z,6036.00
2018-08-31T10:51:06.103Z,6116.00
2018-08-31T10:52:06.135Z,5128.00
2018-08-31T10:53:06.163Z,5580.00
2018-08-31T10:54:06.113Z,5444.00
2018-08-31T10:55:06.120Z,5148.00
2018-08-31T10:56:06.124Z,4784.00
2018-08-31T10:57:06.125Z,4308.00
2018-08-31T10:58:06.131Z,3952.00
2018-08-31T10:59:06.137Z,4452.00
2018-08-31T11:00:06.165Z,4444.00
2018-08-31T11:01:06.147Z,4568.00
2018-08-31T11:02:06.155Z,4576.00
2018-08-31T11:03:06.154Z,5184.00
2018-08-31T11:04:06.161Z,5660.00
2018-08-31T11:05:06.162Z,5696.00
2018-08-31T11:06:06.174Z,5816.00
2018-08-31T11:07:06.172Z,5928.00
2018-08-31T11:08:06.188Z,5532.00
2018-08-31T11:09:06.182Z,5136.00
2018-08-31T11:10:06.191Z,4924.00
2018-08-31T11:11:06.193Z,4892.00
2018-08-31T11:12:06.210Z,5080.00
2018-08-31T11:13:06.247Z,5392.00
2018-08-31T11:14:06.209Z,5512.00
2018-08-31T11:15:06.216Z,5564.00
2018-08-31T11:16:06.223Z,5140.00
2018-08-31T11:17:06.229Z,5016.00
2018-08-31T11:18:06.230Z,5008.00
2018-08-31T11:19:06.238Z,5092.00
2018-08-31T11:20:06.235Z,4960.00
2018-08-31T11:21:06.241Z,5216.00
2018-08-31T11:22:06.246Z,5100.00
2018-08-31T11:23:06.255Z,5324.00
2018-08-31T11:24:06.258Z,5856.00
2018-08-31T11:25:06.262Z,5332.00
2018-08-31T11:26:06.280Z,5868.00
2018-08-31T11:27:06.271Z,6236.00
2018-08-31T11:28:06.277Z,5440.00
2018-08-31T11:29:06.281Z,5208.00
2018-08-31T11:30:06.283Z,5144.00
2018-08-31T11:31:06.291Z,4832.00
2018-08-31T11:32:06.298Z,4352.00
2018-08-31T11:33:06.300Z,3804.00
2018-08-31T11:34:06.305Z,3460.00
2018-08-31T11:35:06.312Z,3200.00
2018-08-31T11:36:06.318Z,3060.00
2018-08-31T11:37:06.322Z,3000.00
2018-08-31T11:38:06.323Z,3168.00
2018-08-31T11:39:06.330Z,3256.00
2018-08-31T11:40:06.335Z,3080.00
2018-08-31T11:41:06.338Z,2996.00
2018-08-31T11:42:06.344Z,3076.00
2018-08-31T11:43:06.348Z,3204.00
2018-08-31T11:44:06.352Z,3300.00
2018-08-31T11:45:06.358Z,3312.00
2018-08-31T11:46:06.363Z,3336.00
2018-08-31T11:47:06.366Z,3528.00
2018-08-31T11:48:06.371Z,3632.00
2018-08-31T11:49:06.376Z,3612.00
2018-08-31T11:50:06.380Z,3856.00
2018-08-31T11:51:06.384Z,4124.00
2018-08-31T11:52:06.390Z,4752.00
2018-08-31T11:53:06.394Z,4720.00
2018-08-31T11:54:06.401Z,5016.00
2018-08-31T11:55:06.412Z,4764.00
2018-08-31T11:56:06.409Z,4856.00
2018-08-31T11:57:06.411Z,5108.00
2018-08-31T11:58:06.415Z,5388.00
2018-08-31T11:59:06.443Z,5636.00
2018-08-31T12:00:06.465Z,5028.00
2018-08-31T12:01:06.483Z,4872.00
2018-08-31T12:02:06.564Z,4724.00
2018-08-31T12:03:06.441Z,4404.00
2018-08-31T12:04:06.449Z,4188.00
2018-08-31T12:05:06.502Z,4180.00
2018-08-31T12:06:06.484Z,4028.00
2018-08-31T12:07:06.878Z,4072.00
2018-08-31T12:08:06.477Z,3800.00
2018-08-31T12:09:06.469Z,3536.00
2018-08-31T12:10:06.518Z,3548.00
2018-08-31T12:11:06.472Z,3688.00
2018-08-31T12:12:06.477Z,4304.00
2018-08-31T12:13:06.484Z,4424.00
2018-08-31T12:14:06.495Z,3940.00
2018-08-31T12:15:06.516Z,3876.00
2018-08-31T12:16:06.496Z,3676.00
2018-08-31T12:17:06.502Z,3732.00
2018-08-31T12:18:06.512Z,4080.00
2018-08-31T12:19:06.524Z,3992.00
2018-08-31T12:20:06.621Z,3928.00
2018-08-31T12:21:06.548Z,3892.00
2018-08-31T12:22:06.529Z,3824.00
2018-08-31T12:23:06.531Z,3480.00
2018-08-31T12:24:06.537Z,3468.00
2018-08-31T12:25:06.548Z,3292.00
2018-08-31T12:26:06.641Z,3220.00
2018-08-31T12:27:06.559Z,3160.00
2018-08-31T12:28:06.586Z,3196.00
2018-08-31T12:29:06.580Z,3548.00
2018-08-31T12:30:06.629Z,3600.00
2018-08-31T12:31:06.571Z,3672.00
2018-08-31T12:32:06.576Z,3748.00
2018-08-31T12:33:06.581Z,3244.00
2018-08-31T12:34:06.584Z,2832.00
2018-08-31T12:35:06.591Z,2660.00
2018-08-31T12:36:06.621Z,2676.00
2018-08-31T12:37:06.597Z,2684.00
2018-08-31T12:38:06.604Z,2624.00
2018-08-31T12:39:06.610Z,2532.00
2018-08-31T12:40:06.616Z,2488.00
2018-08-31T12:41:06.620Z,2428.00
2018-08-31T12:42:06.625Z,2380.00
2018-08-31T12:43:06.628Z,2320.00
2018-08-31T12:44:06.676Z,2276.00
2018-08-31T12:45:06.644Z,2132.00
2018-08-31T12:46:06.647Z,2044.00
2018-08-31T12:47:06.650Z,2032.00
2018-08-31T12:48:06.654Z,2044.00
2018-08-31T12:49:06.658Z,2008.00
2018-08-31T12:50:06.677Z,1916.00
2018-08-31T12:51:06.706Z,1828.00
2018-08-31T12:52:06.676Z,1716.00
2018-08-31T12:53:06.682Z,1584.00
2018-08-31T12:54:06.694Z,1464.00
2018-08-31T12:55:06.687Z,1376.00
2018-08-31T12:56:06.693Z,1348.00
2018-08-31T12:57:06.699Z,1328.00
2018-08-31T12:58:06.704Z,1292.00
2018-08-31T12:59:06.708Z,1248.00
2018-08-31T13:00:06.766Z,1196.00
2018-08-31T13:01:06.737Z,1144.00
2018-08-31T13:02:06.726Z,1124.00
2018-08-31T13:03:06.752Z,1108.00
2018-08-31T13:04:06.752Z,1084.00
2018-08-31T13:05:06.742Z,1048.00
2018-08-31T13:06:06.738Z,1040.00
2018-08-31T13:07:06.829Z,1040.00
2018-08-31T13:08:06.750Z,1020.00
2018-08-31T13:09:06.751Z,972.00
2018-08-31T13:10:06.759Z,932.00
2018-08-31T13:11:06.885Z,900.00
2018-08-31T13:12:06.794Z,864.00
2018-08-31T13:13:06.798Z,828.00
2018-08-31T13:14:06.776Z,792.00
2018-08-31T13:15:06.842Z,776.00
2018-08-31T13:16:06.797Z,772.00
2018-08-31T13:17:06.784Z,788.00
2018-08-31T13:18:06.791Z,804.00
2018-08-31T13:19:06.819Z,832.00
2018-08-31T13:20:06.806Z,860.00
2018-08-31T13:21:06.799Z,888.00
2018-08-31T13:22:06.813Z,924.00
2018-08-31T13:23:06.808Z,968.00
2018-08-31T13:24:06.813Z,1012.00
2018-08-31T13:25:06.906Z,1040.00
2018-08-31T13:26:06.821Z,1048.00
2018-08-31T13:27:06.855Z,1048.00
2018-08-31T13:28:06.855Z,1048.00
2018-08-31T13:29:06.841Z,1052.00
2018-08-31T13:30:06.835Z,1040.00
2018-08-31T13:31:06.876Z,1012.00
2018-08-31T13:32:06.867Z,984.00
2018-08-31T13:33:06.889Z,980.00
2018-08-31T13:34:06.885Z,972.00
2018-08-31T13:35:06.853Z,948.00
2018-08-31T13:36:06.859Z,920.00
2018-08-31T13:37:06.865Z,880.00
2018-08-31T13:38:06.869Z,800.00
2018-08-31T13:39:06.880Z,736.00
2018-08-31T13:40:06.894Z,740.00
2018-08-31T13:41:06.879Z,788.00
2018-08-31T13:42:06.883Z,832.00
2018-08-31T13:43:06.887Z,872.00
2018-08-31T13:44:06.954Z,880.00
2018-08-31T13:45:06.893Z,856.00
2018-08-31T13:46:06.923Z,788.00
2018-08-31T13:47:06.918Z,712.00
2018-08-31T13:48:06.971Z,644.00
2018-08-31T13:49:06.907Z,584.00
2018-08-31T13:50:06.911Z,560.00
2018-08-31T13:51:06.920Z,564.00
2018-08-31T13:52:06.920Z,588.00
2018-08-31T13:53:06.921Z,624.00
2018-08-31T13:54:06.976Z,656.00
2018-08-31T13:55:06.933Z,688.00
2018-08-31T13:56:06.954Z,732.00
2018-08-31T13:57:06.940Z,796.00
2018-08-31T13:58:06.984Z,896.00
2018-08-31T13:59:06.974Z,1044.00
2018-08-31T14:00:06.949Z,1224.00
2018-08-31T14:01:06.956Z,1428.00
2018-08-31T14:02:06.962Z,1644.00
2018-08-31T14:03:06.961Z,1768.00
2018-08-31T14:04:06.980Z,1856.00
2018-08-31T14:05:06.988Z,1944.00
2018-08-31T14:06:06.976Z,1948.00
2018-08-31T14:07:06.977Z,1952.00
2018-08-31T14:08:06.997Z,1868.00
2018-08-31T14:09:06.999Z,1796.00
2018-08-31T14:10:07.081Z,1756.00
2018-08-31T14:11:06.998Z,1704.00
2018-08-31T14:12:07.051Z,1636.00
2018-08-31T14:13:06.996Z,1588.00
2018-08-31T14:14:07.001Z,1552.00
2018-08-31T14:15:07.007Z,1564.00
2018-08-31T14:16:07.018Z,1628.00
2018-08-31T14:17:07.124Z,1720.00
2018-08-31T14:18:07.076Z,1788.00
2018-08-31T14:19:07.024Z,1804.00
2018-08-31T14:20:07.027Z,1756.00
2018-08-31T14:21:07.062Z,1700.00
2018-08-31T14:22:07.051Z,1644.00
2018-08-31T14:23:07.034Z,1568.00
2018-08-31T14:24:07.061Z,1464.00
2018-08-31T14:25:07.113Z,1388.00
2018-08-31T14:26:07.048Z,1344.00
2018-08-31T14:27:07.052Z,1312.00
2018-08-31T14:28:07.056Z,1260.00
2018-08-31T14:29:07.061Z,1196.00
2018-08-31T14:30:07.162Z,1168.00
2018-08-31T14:31:07.973Z,1216.00
2018-08-31T14:32:07.101Z,1336.00
2018-08-31T14:33:07.079Z,1428.00
2018-08-31T14:34:07.207Z,1492.00
2018-08-31T14:35:07.083Z,1572.00
2018-08-31T14:36:07.087Z,1688.00
2018-08-31T14:37:07.097Z,1780.00
2018-08-31T14:38:07.126Z,1828.00
2018-08-31T14:39:07.097Z,1880.00
2018-08-31T14:40:07.102Z,1964.00
2018-08-31T14:41:07.106Z,2120.00
2018-08-31T14:42:07.115Z,2308.00
2018-08-31T14:43:07.117Z,2348.00
2018-08-31T14:44:07.154Z,2372.00
2018-08-31T14:45:07.120Z,2236.00
2018-08-31T14:46:07.125Z,2128.00
2018-08-31T14:47:07.130Z,2024.00
2018-08-31T14:48:07.838Z,1972.00
2018-08-31T14:49:07.714Z,1928.00
2018-08-31T14:50:07.144Z,1832.00
2018-08-31T14:51:07.269Z,1780.00
2018-08-31T14:52:07.297Z,1800.00
2018-08-31T14:53:07.337Z,1784.00
2018-08-31T14:54:07.187Z,1788.00
2018-08-31T14:55:07.178Z,1748.00
2018-08-31T14:56:07.231Z,1724.00
2018-08-31T14:57:07.175Z,1704.00
2018-08-31T14:58:07.180Z,1696.00
2018-08-31T14:59:07.257Z,1676.00
2018-08-31T15:00:07.184Z,1668.00
2018-08-31T15:01:07.262Z,1684.00
2018-08-31T15:02:07.236Z,1708.00
2018-08-31T15:03:07.205Z,1792.00
2018-08-31T15:04:07.199Z,1896.00
2018-08-31T15:05:07.240Z,1980.00
2018-08-31T15:06:07.206Z,2084.00
2018-08-31T15:07:07.211Z,2216.00
2018-08-31T15:08:07.215Z,2168.00
2018-08-31T15:09:07.218Z,2124.00
2018-08-31T15:10:07.287Z,2104.00
2018-08-31T15:11:07.227Z,1924.00
2018-08-31T15:12:07.267Z,1696.00
2018-08-31T15:13:07.386Z,1484.00
2018-08-31T15:14:07.326Z,1356.00
2018-08-31T15:15:07.500Z,1340.00
2018-08-31T15:16:14.492Z,1428.00
2018-08-31T15:18:11.761Z,1628.00
2018-08-31T15:19:04.615Z,1692.00
2018-08-31T15:20:04.612Z,1648.00
2018-08-31T15:21:04.568Z,1544.00
2018-08-31T15:22:04.592Z,1428.00
2018-08-31T15:23:04.588Z,1316.00
2018-08-31T15:24:04.632Z,1196.00
2018-08-31T15:25:04.594Z,1104.00
2018-08-31T15:26:04.603Z,1020.00
2018-08-31T15:27:04.621Z,940.00
2018-08-31T15:28:04.595Z,880.00
2018-08-31T15:29:04.631Z,836.00
2018-08-31T15:30:04.619Z,836.00
2018-08-31T15:31:04.614Z,872.00
2018-08-31T15:32:04.675Z,928.00
2018-08-31T15:33:04.745Z,988.00
2018-08-31T15:34:11.777Z,1024.00
2018-08-31T15:38:13.300Z,1364.00
2018-08-31T15:39:13.269Z,1420.00
2018-08-31T15:41:07.037Z,1532.00
2018-08-31T15:42:07.033Z,1664.00
2018-08-31T15:44:00.710Z,1904.00
2018-08-31T15:45:00.482Z,1980.00
2018-08-31T15:46:00.514Z,1944.00
2018-08-31T15:47:00.474Z,1876.00
2018-08-31T15:48:00.475Z,1804.00
2018-08-31T15:49:00.480Z,1724.00
2018-08-31T15:50:00.537Z,1632.00
2018-08-31T15:51:00.496Z,1536.00
2018-08-31T15:52:00.491Z,1456.00
2018-08-31T15:53:00.522Z,1436.00
2018-08-31T15:54:00.503Z,1452.00
2018-08-31T15:55:01.436Z,1440.00
2018-08-31T15:56:00.544Z,1400.00
2018-08-31T15:57:00.510Z,1388.00
2018-08-31T15:58:00.538Z,1424.00
2018-08-31T15:59:00.524Z,1412.00
2018-08-31T16:00:00.523Z,1372.00
2018-08-31T16:01:00.528Z,1364.00
2018-08-31T16:02:00.555Z,1356.00
2018-08-31T16:03:00.539Z,1340.00
2018-08-31T16:04:00.540Z,1308.00
2018-08-31T16:05:00.546Z,1296.00
2018-08-31T16:06:00.555Z,1296.00
2018-08-31T16:07:00.557Z,1308.00
2018-08-31T16:08:00.555Z,1308.00
2018-08-31T16:09:00.559Z,1316.00
2018-08-31T16:10:00.558Z,1332.00
2018-08-31T16:11:00.572Z,1344.00
2018-08-31T16:12:00.568Z,1332.00
2018-08-31T16:13:00.586Z,1344.00
2018-08-31T16:14:00.577Z,1304.00
2018-08-31T16:15:00.582Z,1284.00
2018-08-31T16:16:00.594Z,1240.00
2018-08-31T16:17:00.590Z,1220.00
2018-08-31T16:18:00.653Z,1212.00
2018-08-31T16:19:00.656Z,1212.00
2018-08-31T16:20:00.599Z,1184.00
2018-08-31T16:21:00.702Z,1156.00
2018-08-31T16:22:00.605Z,1148.00
2018-08-31T16:23:00.610Z,1156.00
2018-08-31T16:24:00.625Z,1124.00
2018-08-31T16:25:00.618Z,1072.00
2018-08-31T16:26:00.635Z,1044.00
2018-08-31T16:27:00.627Z,1016.00
2018-08-31T16:28:00.630Z,1000.00
2018-08-31T16:29:00.641Z,980.00
2018-08-31T16:30:00.637Z,968.00
2018-08-31T16:31:00.639Z,932.00